S&P 500   3,811.15
DOW   30,932.37
QQQ   314.14
pixel
pixel
S&P 500   3,811.15
DOW   30,932.37
QQQ   314.14
pixel
pixel
S&P 500   3,811.15
DOW   30,932.37
QQQ   314.14
pixel
pixel
S&P 500   3,811.15
DOW   30,932.37
QQQ   314.14
pixel
pixel
Log in
NYSE:PCM

PCM Fund Institutional Ownership

$11.01
+0.09 (+0.82 %)
(As of 02/26/2021 12:00 AM ET)
Add
Compare
Today's Range
$10.90
Now: $11.01
$11.10
50-Day Range
$10.88
MA: $11.18
$11.39
52-Week Range
$5.51
Now: $11.01
$11.47
Volume24,800 shs
Average Volume23,779 shs
Market Capitalization$127.89 million
P/E RatioN/A
Dividend Yield8.72%
Beta0.76

Institutional Ownership

Institutional Ownership Changes (13F Filings) for PCM Fund (NYSE:PCM)

Institutional Ownership Percentage: 6.39%

Institutional Buying and Selling by Quarter


PCM Fund (NYSE PCM) Institutional Buying and Selling

Reporting DateHedge FundShares HeldMarket Value% of PortfolioQuarterly Change in SharesOwnership in Company
2/12/2021LPL Financial LLC14,791$0.16M0.0%+8.8%0.127%
2/10/2021Mid Atlantic Financial Management Inc. ADV119,447$1.28M0.1%+1.6%1.028%
2/5/2021NEXT Financial Group Inc3,026$32K0.0%-24.5%0.026%
2/3/2021Ieq Capital LLC91,520$0.98M0.0%N/A0.788%
11/9/2020LPL Financial LLC13,595$0.14M0.0%+12.4%0.117%
11/9/2020Kestra Private Wealth Services LLC16,677$0.17M0.0%N/A0.144%
10/23/2020SOL Capital Management CO174,637$1.77M0.5%+1.5%1.503%
10/22/2020NEXT Financial Group Inc4,010$41K0.0%N/A0.035%
10/19/2020Capital Investment Advisory Services LLC10,000$0.10M0.0%N/A0.086%
8/14/2020Bank of America Corp DE57,335$0.54M0.0%+10.7%0.494%
8/14/2020Advisor Group Holdings Inc.36,472$0.34M0.0%-35.3%0.314%
8/11/2020UMA Financial Services Inc.34,500$0.34M0.1%N/A0.297%
8/6/2020Mid Atlantic Financial Management Inc. ADV114,947$1.08M0.1%+7.0%0.989%
7/31/2020SOL Capital Management CO172,137$1.62M0.5%+6.2%1.481%
7/31/2020UBS Group AG4,678$44K0.0%+53.0%0.040%
7/28/2020DAVENPORT & Co LLC25,250$0.24M0.0%N/A0.217%
5/18/2020RiverNorth Capital Management LLC34,461$0.27M0.0%N/A0.297%
5/18/2020Advisor Group Holdings Inc.56,410$0.45M0.0%N/A0.485%
5/15/2020Morgan Stanley15,695$0.13M0.0%+51.4%0.135%
5/14/2020Wells Fargo & Company MN10,527$84K0.0%-13.5%0.091%
5/13/2020Horizon Kinetics Asset Management LLC33,751$0.27M0.0%-15.9%0.291%
5/13/2020Lido Advisors LLC17,112$0.14M0.0%-37.2%0.147%
5/11/2020First Foundation Advisors109,293$0.87M0.1%-44.7%0.941%
5/11/2020Mid Atlantic Financial Management Inc. ADV107,397$0.85M0.1%+16.7%0.924%
5/1/2020Shaker Financial Services LLC14,200$0.11M0.1%N/A0.122%
4/21/2020Raymond James & Associates23,555$0.19M0.0%-6.1%0.203%
2/17/2020Ladenburg Thalmann Financial Services Inc.9,000$0.10M0.0%N/A0.078%
2/14/2020Bank of America Corp DE49,434$0.57M0.0%+2.6%0.426%
2/12/2020Advisor Group Inc.22,312$0.26M0.0%+11.1%0.193%
2/11/2020First Foundation Advisors197,779$2.27M0.1%-10.0%1.706%
2/11/2020Mid Atlantic Financial Management Inc. ADV92,020$1.06M0.1%-8.8%0.794%
1/21/2020NEXT Financial Group Inc3,124$36K0.0%+42.1%0.027%
10/30/2019Commonwealth Equity Services LLC63,598$0.71M0.0%+2.3%0.549%
10/30/2019BB&T Securities LLC18,600$0.21M0.0%+5.7%0.160%
10/25/2019FNY Investment Advisers LLC3,372$37K0.0%+1,981.5%0.029%
8/14/2019Bank of America Corp DE143,857$1.63M0.0%+7.4%1.241%
8/14/2019First Foundation Advisors220,893$2.50M0.1%-1.0%1.906%
8/10/2019LPL Financial LLC111,019$1.26M0.0%-1.6%0.958%
8/6/2019Wells Fargo & Company MN17,863$0.20M0.0%+37.7%0.154%
8/6/2019Mid Atlantic Financial Management Inc. ADV81,375$0.92M0.1%+9.0%0.702%
7/31/2019Advisor Group Inc.96,998$1.10M0.0%+138.0%0.837%
6/30/2019Commonwealth Equity Services LLC62,177$0.70M0.0%+2.1%0.536%
6/30/2019SOL Capital Management CO163,187$1.85M0.5%-5.6%1.408%
5/7/2019Mid Atlantic Financial Management Inc. ADV74,675$0.83M0.1%+17.1%0.644%
4/16/2019Pennsylvania Trust Co213,491$17.98M0.5%N/A1.842%
2/14/2019First Foundation Advisors246,100$2.50M0.2%-0.5%2.126%
2/14/2019Bank of America Corp DE64,282$0.65M0.0%-20.8%0.555%
2/11/2019Advisor Group Inc.25,260$0.26M0.0%+46.1%0.218%
2/11/2019Commonwealth Equity Services LLC61,038$0.62M0.0%-5.1%0.527%
2/11/2019Raymond James & Associates20,174$0.21M0.0%+27.9%0.174%
2/7/2019LPL Financial LLC82,729$0.84M0.0%-3.4%0.715%
2/4/2019BB&T Securities LLC13,100$0.13M0.0%+29.7%0.113%
1/25/2019SOL Capital Management CO172,937$1.76M0.6%-3.4%1.494%
11/14/2018LPL Financial LLC85,679$0.97M0.0%+19.5%0.740%
11/13/2018First Foundation Advisors247,322$2.80M0.2%-2.1%2.136%
11/13/2018Raymond James Trust N.A.13,567$0.15M0.0%N/A0.117%
10/9/2018Pennsylvania Trust Co9,911$0.30M0.0%N/A0.086%
8/14/2018Bank of America Corp DE12,449$0.14M0.0%+99.2%0.108%
8/13/2018Laurion Capital Management LP53,919$0.62M0.0%N/A0.466%
8/11/2018Northwestern Mutual Wealth Management Co.11,194$0.13M0.0%-36.2%0.097%
5/15/2018First Foundation Advisors302,757$3.43M0.2%-4.7%2.617%
5/14/2018Commonwealth Equity Services LLC60,778$0.69M0.0%+15.7%0.525%
5/2/2018Wells Fargo & Company MN19,139$0.22M0.0%+53.0%0.165%
2/14/2018Guggenheim Capital LLC16,139$0.19M0.0%-50.5%0.139%
2/14/2018Advisor Group Inc.251,190$2.91M0.0%-2.1%2.171%
11/15/2017Ladenburg Thalmann Financial Services Inc.10,986$0.13M0.0%-69.2%0.095%
11/7/2017Commonwealth Equity Services Inc63,784$0.74M0.0%+27.5%0.551%
8/11/2017Advisor Group Inc.252,715$2.84M0.1%-0.5%2.187%
8/10/2017Northwestern Mutual Wealth Management Co.15,850$0.18M0.0%No Change0.137%
8/10/2017Wells Fargo & Company MN12,796$0.14M0.0%+30.6%0.111%
7/28/2017Bessemer Group Inc.57,011$0.64M0.0%No Change0.000%
(Data available from 1/1/2016 forward)

This page was last updated on 3/1/2021 by MarketBeat.com Staff

Enter your email address below to receive a concise daily summary of analysts' upgrades, downgrades and new coverage with MarketBeat.com's FREE daily email newsletter.